createdAt,value
2017-06-15T00:00:06.334Z,1015.58
2017-06-15T00:00:47.226Z,1015.56
2017-06-15T00:01:28.151Z,1015.53
2017-06-15T00:02:09.038Z,1015.54
2017-06-15T00:02:49.925Z,1015.52
2017-06-15T00:03:30.805Z,1015.53
2017-06-15T00:04:11.707Z,1015.51
2017-06-15T00:04:52.592Z,1015.53
2017-06-15T00:05:33.498Z,1015.52
2017-06-15T00:06:14.397Z,1015.53
2017-06-15T00:06:55.290Z,1015.54
2017-06-15T00:07:36.176Z,1015.48
2017-06-15T00:08:17.079Z,1015.52
2017-06-15T00:08:57.966Z,1015.5
2017-06-15T00:09:38.858Z,1015.51
2017-06-15T00:10:19.752Z,1015.47
2017-06-15T00:11:00.633Z,1015.52
2017-06-15T00:11:41.527Z,1015.51
2017-06-15T00:12:22.425Z,1015.51
2017-06-15T00:13:03.318Z,1015.49
2017-06-15T00:13:44.227Z,1015.5
2017-06-15T00:14:25.110Z,1015.51
2017-06-15T00:15:06.014Z,1015.53
2017-06-15T00:15:46.906Z,1015.5
2017-06-15T00:16:27.783Z,1015.53
2017-06-15T00:17:08.678Z,1015.55
2017-06-15T00:17:49.558Z,1015.51
2017-06-15T00:18:30.461Z,1015.53
2017-06-15T00:19:11.362Z,1015.53
2017-06-15T00:19:52.254Z,1015.5
2017-06-15T00:20:33.146Z,1015.58
2017-06-15T00:21:14.042Z,1015.54
2017-06-15T00:21:54.928Z,1015.54
2017-06-15T00:22:35.832Z,1015.54
2017-06-15T00:23:16.704Z,1015.5
2017-06-15T00:23:57.606Z,1015.52
2017-06-15T00:24:38.490Z,1015.48
2017-06-15T00:25:19.390Z,1015.48
2017-06-15T00:26:00.289Z,1015.5
2017-06-15T00:26:41.178Z,1015.49
2017-06-15T00:27:22.075Z,1015.48
2017-06-15T00:28:02.958Z,1015.46
2017-06-15T00:28:43.840Z,1015.46
2017-06-15T00:29:24.739Z,1015.45
2017-06-15T00:30:05.639Z,1015.45
2017-06-15T00:30:46.529Z,1015.45
2017-06-15T00:31:27.422Z,1015.42
2017-06-15T00:32:08.312Z,1015.42
2017-06-15T00:32:49.195Z,1015.45
2017-06-15T00:33:30.095Z,1015.46
2017-06-15T00:34:10.976Z,1015.46
2017-06-15T00:34:51.885Z,1015.47
2017-06-15T00:35:32.775Z,1015.47
2017-06-15T00:36:13.658Z,1015.47
2017-06-15T00:36:54.542Z,1015.5
2017-06-15T00:37:35.436Z,1015.49
2017-06-15T00:38:16.328Z,1015.49
2017-06-15T00:38:57.218Z,1015.52
2017-06-15T00:39:38.120Z,1015.49
2017-06-15T00:40:19.012Z,1015.51
2017-06-15T00:40:59.896Z,1015.48
2017-06-15T00:41:40.795Z,1015.48
2017-06-15T00:42:21.686Z,1015.47
2017-06-15T00:43:02.575Z,1015.5
2017-06-15T00:43:43.466Z,1015.5
2017-06-15T00:44:24.363Z,1015.5
2017-06-15T00:45:05.256Z,1015.51
2017-06-15T00:45:46.152Z,1015.49
2017-06-15T00:46:27.047Z,1015.52
2017-06-15T00:47:07.935Z,1015.54
2017-06-15T00:47:48.824Z,1015.51
2017-06-15T00:48:29.714Z,1015.5
2017-06-15T00:49:10.607Z,1015.48
2017-06-15T00:49:51.504Z,1015.49
2017-06-15T00:50:32.393Z,1015.45
2017-06-15T00:51:13.293Z,1015.47
2017-06-15T00:51:54.178Z,1015.47
2017-06-15T00:52:35.064Z,1015.46
2017-06-15T00:53:15.977Z,1015.44
2017-06-15T00:53:56.863Z,1015.45
2017-06-15T00:54:37.744Z,1015.39
2017-06-15T00:55:18.635Z,1015.38
2017-06-15T00:55:59.529Z,1015.33
2017-06-15T00:56:40.420Z,1015.37
2017-06-15T00:57:21.304Z,1015.38
2017-06-15T00:58:02.212Z,1015.32
2017-06-15T00:58:43.096Z,1015.29
2017-06-15T00:59:23.975Z,1015.35
2017-06-15T01:00:04.872Z,1015.33
2017-06-15T01:00:45.768Z,1015.32
2017-06-15T01:01:26.636Z,1015.33
2017-06-15T01:02:07.524Z,1015.34
2017-06-15T01:02:48.419Z,1015.35
2017-06-15T01:03:29.308Z,1015.36
2017-06-15T01:04:10.220Z,1015.35
2017-06-15T01:04:51.121Z,1015.39
2017-06-15T01:05:32.000Z,1015.39
2017-06-15T01:06:12.876Z,1015.39
2017-06-15T01:06:53.772Z,1015.4
2017-06-15T01:07:34.660Z,1015.39
2017-06-15T01:08:15.556Z,1015.41
2017-06-15T01:08:56.449Z,1015.41
2017-06-15T01:09:37.330Z,1015.39
2017-06-15T01:10:18.203Z,1015.39
2017-06-15T01:10:59.100Z,1015.41
2017-06-15T01:11:40.000Z,1015.42
2017-06-15T01:12:20.903Z,1015.36
2017-06-15T01:13:01.775Z,1015.37
2017-06-15T01:13:42.687Z,1015.4
2017-06-15T01:14:23.580Z,1015.4
2017-06-15T01:15:04.485Z,1015.39
2017-06-15T01:15:45.373Z,1015.4
2017-06-15T01:16:26.252Z,1015.39
2017-06-15T01:17:07.158Z,1015.36
2017-06-15T01:17:48.041Z,1015.35
2017-06-15T01:18:28.928Z,1015.35
2017-06-15T01:19:09.833Z,1015.34
2017-06-15T01:19:50.713Z,1015.34
2017-06-15T01:20:31.607Z,1015.33
2017-06-15T01:21:12.512Z,1015.32
2017-06-15T01:21:53.392Z,1015.32
2017-06-15T01:22:34.278Z,1015.32
2017-06-15T01:23:15.171Z,1015.31
2017-06-15T01:23:56.059Z,1015.29
2017-06-15T01:24:36.935Z,1015.27
2017-06-15T01:25:17.830Z,1015.32
2017-06-15T01:25:58.721Z,1015.31
2017-06-15T01:26:39.604Z,1015.29
2017-06-15T01:27:20.493Z,1015.26
2017-06-15T01:28:01.395Z,1015.26
2017-06-15T01:28:42.277Z,1015.28
2017-06-15T01:29:23.164Z,1015.28
2017-06-15T01:30:04.056Z,1015.25
2017-06-15T01:30:44.954Z,1015.28
2017-06-15T01:31:25.825Z,1015.29
2017-06-15T01:32:06.722Z,1015.27
2017-06-15T01:32:47.617Z,1015.28
2017-06-15T01:33:28.505Z,1015.29
2017-06-15T01:34:09.391Z,1015.29
2017-06-15T01:34:50.287Z,1015.29
2017-06-15T01:35:31.196Z,1015.31
2017-06-15T01:36:12.072Z,1015.3
2017-06-15T01:36:52.955Z,1015.3
2017-06-15T01:37:33.831Z,1015.31
2017-06-15T01:38:14.721Z,1015.31
2017-06-15T01:38:55.618Z,1015.31
2017-06-15T01:39:36.508Z,1015.3
2017-06-15T01:40:17.403Z,1015.33
2017-06-15T01:40:58.291Z,1015.35
2017-06-15T01:41:39.179Z,1015.35
2017-06-15T01:42:20.046Z,1015.36
2017-06-15T01:43:00.946Z,1015.39
2017-06-15T01:43:41.837Z,1015.35
2017-06-15T01:44:22.726Z,1015.36
2017-06-15T01:45:03.628Z,1015.36
2017-06-15T01:45:44.540Z,1015.36
2017-06-15T01:46:25.428Z,1015.32
2017-06-15T01:47:06.330Z,1015.3
2017-06-15T01:47:47.228Z,1015.32
2017-06-15T01:48:28.119Z,1015.36
2017-06-15T01:49:09.030Z,1015.31
2017-06-15T01:49:49.901Z,1015.3
2017-06-15T01:50:30.789Z,1015.34
2017-06-15T01:51:11.681Z,1015.34
2017-06-15T01:51:52.568Z,1015.32
2017-06-15T01:52:33.451Z,1015.39
2017-06-15T01:53:14.344Z,1015.34
2017-06-15T01:53:55.239Z,1015.33
2017-06-15T01:54:36.134Z,1015.33
2017-06-15T01:55:17.035Z,1015.35
2017-06-15T01:55:57.919Z,1015.33
2017-06-15T01:56:38.806Z,1015.34
2017-06-15T01:57:19.703Z,1015.33
2017-06-15T01:58:00.589Z,1015.34
2017-06-15T01:58:41.488Z,1015.34
2017-06-15T01:59:22.369Z,1015.35
2017-06-15T02:00:03.268Z,1015.33
2017-06-15T02:00:44.153Z,1015.36
2017-06-15T02:01:25.046Z,1015.39
2017-06-15T02:02:05.946Z,1015.4
2017-06-15T02:02:46.845Z,1015.37
2017-06-15T02:03:27.742Z,1015.39
2017-06-15T02:04:08.634Z,1015.4
2017-06-15T02:04:49.526Z,1015.39
2017-06-15T02:05:30.429Z,1015.42
2017-06-15T02:06:11.308Z,1015.39
2017-06-15T02:06:52.199Z,1015.42
2017-06-15T02:07:33.080Z,1015.42
2017-06-15T02:08:13.972Z,1015.42
2017-06-15T02:08:54.879Z,1015.44
2017-06-15T02:09:35.747Z,1015.45
2017-06-15T02:10:16.652Z,1015.43
2017-06-15T02:10:57.547Z,1015.44
2017-06-15T02:11:38.443Z,1015.45
2017-06-15T02:12:19.330Z,1015.42
2017-06-15T02:13:00.218Z,1015.44
2017-06-15T02:13:41.107Z,1015.45
2017-06-15T02:14:21.999Z,1015.42
2017-06-15T02:15:02.887Z,1015.45
2017-06-15T02:15:43.789Z,1015.45
2017-06-15T02:16:24.678Z,1015.46
2017-06-15T02:17:05.557Z,1015.47
2017-06-15T02:17:46.432Z,1015.46
2017-06-15T02:18:27.322Z,1015.48
2017-06-15T02:19:08.209Z,1015.48
2017-06-15T02:19:49.107Z,1015.48
2017-06-15T02:20:29.996Z,1015.46
2017-06-15T02:21:10.899Z,1015.45
2017-06-15T02:21:51.801Z,1015.47
2017-06-15T02:22:32.694Z,1015.41
2017-06-15T02:23:13.618Z,1015.39
2017-06-15T02:23:54.498Z,1015.39
2017-06-15T02:24:35.387Z,1015.42
2017-06-15T02:25:16.268Z,1015.42
2017-06-15T02:25:57.151Z,1015.42
2017-06-15T02:26:38.045Z,1015.38
2017-06-15T02:27:18.951Z,1015.36
2017-06-15T02:27:59.833Z,1015.38
2017-06-15T02:28:40.736Z,1015.35
2017-06-15T02:29:21.629Z,1015.39
2017-06-15T02:30:02.505Z,1015.37
2017-06-15T02:30:43.426Z,1015.38
2017-06-15T02:31:24.300Z,1015.4
2017-06-15T02:32:05.212Z,1015.39
2017-06-15T02:32:46.090Z,1015.41
2017-06-15T02:33:26.965Z,1015.37
2017-06-15T02:34:07.860Z,1015.41
2017-06-15T02:34:48.750Z,1015.4
2017-06-15T02:35:29.643Z,1015.39
2017-06-15T02:36:10.536Z,1015.39
2017-06-15T02:36:51.425Z,1015.41
2017-06-15T02:37:32.306Z,1015.4
2017-06-15T02:38:13.185Z,1015.4
2017-06-15T02:38:54.064Z,1015.4
2017-06-15T02:39:34.957Z,1015.37
2017-06-15T02:40:15.838Z,1015.39
2017-06-15T02:40:56.720Z,1015.4
2017-06-15T02:41:37.601Z,1015.38
2017-06-15T02:42:18.519Z,1015.39
2017-06-15T02:42:59.423Z,1015.41
2017-06-15T02:43:40.314Z,1015.39
2017-06-15T02:44:21.200Z,1015.4
2017-06-15T02:45:02.082Z,1015.42
2017-06-15T02:45:42.967Z,1015.41
2017-06-15T02:46:23.864Z,1015.4
2017-06-15T02:47:04.730Z,1015.43
2017-06-15T02:47:45.619Z,1015.42
2017-06-15T02:48:26.519Z,1015.45
2017-06-15T02:49:07.396Z,1015.42
2017-06-15T02:49:48.289Z,1015.44
2017-06-15T02:50:29.177Z,1015.43
2017-06-15T02:51:10.072Z,1015.46
2017-06-15T02:51:50.960Z,1015.47
2017-06-15T02:52:31.831Z,1015.46
2017-06-15T02:53:12.715Z,1015.44
2017-06-15T02:53:53.613Z,1015.43
2017-06-15T02:54:34.482Z,1015.44
2017-06-15T02:55:15.367Z,1015.42
2017-06-15T02:55:56.246Z,1015.43
2017-06-15T02:56:37.126Z,1015.44
2017-06-15T02:57:18.043Z,1015.46
2017-06-15T02:57:58.897Z,1015.42
2017-06-15T02:58:39.779Z,1015.45
2017-06-15T02:59:20.655Z,1015.45
2017-06-15T03:00:01.562Z,1015.44
2017-06-15T03:00:42.451Z,1015.47
2017-06-15T03:01:23.450Z,1015.49
2017-06-15T03:02:04.341Z,1015.47
2017-06-15T03:02:45.557Z,1015.43
2017-06-15T03:03:26.466Z,1015.44
2017-06-15T03:04:07.354Z,1015.46
2017-06-15T03:04:48.256Z,1015.48
2017-06-15T03:05:29.147Z,1015.45
2017-06-15T03:06:10.026Z,1015.45
2017-06-15T03:06:50.907Z,1015.47
2017-06-15T03:07:31.795Z,1015.47
2017-06-15T03:08:12.693Z,1015.47
2017-06-15T03:08:53.584Z,1015.44
2017-06-15T03:09:34.474Z,1015.46
2017-06-15T03:10:15.368Z,1015.48
2017-06-15T03:10:56.254Z,1015.48
2017-06-15T03:11:37.150Z,1015.52
2017-06-15T03:12:18.044Z,1015.52
2017-06-15T03:12:58.950Z,1015.52
2017-06-15T03:13:39.840Z,1015.47
2017-06-15T03:14:20.718Z,1015.52
2017-06-15T03:15:01.600Z,1015.53
2017-06-15T03:15:42.491Z,1015.5
2017-06-15T03:16:23.379Z,1015.54
2017-06-15T03:17:04.307Z,1015.52
2017-06-15T03:17:45.251Z,1015.48
2017-06-15T03:18:26.115Z,1015.47
2017-06-15T03:20:35.135Z,1015.51
2017-06-15T03:21:16.030Z,1015.52
2017-06-15T03:21:56.919Z,1015.49
2017-06-15T03:22:37.802Z,1015.5
2017-06-15T03:23:18.671Z,1015.51
2017-06-15T03:23:59.561Z,1015.5
2017-06-15T03:24:40.439Z,1015.53
2017-06-15T03:25:21.325Z,1015.52
2017-06-15T03:26:02.199Z,1015.5
2017-06-15T03:26:43.113Z,1015.51
2017-06-15T03:27:23.977Z,1015.48
2017-06-15T03:28:04.869Z,1015.5
2017-06-15T03:28:45.744Z,1015.53
2017-06-15T03:29:26.647Z,1015.56
2017-06-15T03:30:07.528Z,1015.55
2017-06-15T03:30:48.407Z,1015.57
2017-06-15T03:31:29.298Z,1015.54
2017-06-15T03:32:10.185Z,1015.53
2017-06-15T03:32:51.085Z,1015.52
2017-06-15T03:33:31.989Z,1015.59
2017-06-15T03:34:12.865Z,1015.56
2017-06-15T03:34:53.742Z,1015.56
2017-06-15T03:35:34.640Z,1015.54
2017-06-15T03:36:15.511Z,1015.53
2017-06-15T03:36:56.396Z,1015.56
2017-06-15T03:37:37.280Z,1015.56
2017-06-15T03:38:18.232Z,1015.56
2017-06-15T03:38:59.124Z,1015.55
2017-06-15T03:39:40.007Z,1015.55
2017-06-15T03:40:20.888Z,1015.54
2017-06-15T03:41:01.768Z,1015.57
2017-06-15T03:41:42.657Z,1015.52
2017-06-15T03:42:23.558Z,1015.53
2017-06-15T03:43:04.439Z,1015.55
2017-06-15T03:43:45.327Z,1015.51
2017-06-15T03:44:26.261Z,1015.54
2017-06-15T03:45:07.119Z,1015.48
2017-06-15T03:45:48.006Z,1015.46
2017-06-15T03:46:28.899Z,1015.43
2017-06-15T03:47:09.802Z,1015.43
2017-06-15T03:47:50.703Z,1015.42
2017-06-15T03:48:31.619Z,1015.46
2017-06-15T03:49:12.544Z,1015.47
2017-06-15T03:49:53.440Z,1015.47
2017-06-15T03:50:34.324Z,1015.5
2017-06-15T03:51:15.216Z,1015.44
2017-06-15T03:51:56.107Z,1015.45
2017-06-15T03:52:36.986Z,1015.42
2017-06-15T03:53:17.879Z,1015.39
2017-06-15T03:53:58.764Z,1015.39
2017-06-15T03:54:39.655Z,1015.35
2017-06-15T03:55:20.550Z,1015.39
2017-06-15T03:56:01.444Z,1015.35
2017-06-15T03:56:42.326Z,1015.34
2017-06-15T03:57:23.222Z,1015.35
2017-06-15T03:58:04.129Z,1015.35
2017-06-15T03:58:45.004Z,1015.33
2017-06-15T03:59:25.904Z,1015.34
2017-06-15T04:00:06.796Z,1015.34
2017-06-15T04:00:47.689Z,1015.33
2017-06-15T04:01:28.583Z,1015.33
2017-06-15T04:02:09.497Z,1015.35
2017-06-15T04:02:50.399Z,1015.31
2017-06-15T04:03:31.301Z,1015.33
2017-06-15T04:04:12.194Z,1015.37
2017-06-15T04:04:53.082Z,1015.38
2017-06-15T04:05:33.962Z,1015.41
2017-06-15T04:06:14.855Z,1015.41
2017-06-15T04:06:55.808Z,1015.42
2017-06-15T04:07:36.697Z,1015.4
2017-06-15T04:08:17.610Z,1015.41
2017-06-15T04:08:58.490Z,1015.38
2017-06-15T04:09:39.385Z,1015.37
2017-06-15T04:10:20.278Z,1015.37
2017-06-15T04:11:01.167Z,1015.39
2017-06-15T04:11:42.061Z,1015.41
2017-06-15T04:12:22.962Z,1015.38
2017-06-15T04:13:03.853Z,1015.4
2017-06-15T04:13:44.745Z,1015.38
2017-06-15T04:14:25.639Z,1015.39
2017-06-15T04:15:06.527Z,1015.42
2017-06-15T04:15:47.423Z,1015.36
2017-06-15T04:16:28.320Z,1015.35
2017-06-15T04:17:09.191Z,1015.38
2017-06-15T04:17:50.089Z,1015.41
2017-06-15T04:18:30.986Z,1015.37
2017-06-15T04:19:11.874Z,1015.38
2017-06-15T04:19:52.773Z,1015.4
2017-06-15T04:20:33.668Z,1015.39
2017-06-15T04:21:14.545Z,1015.41
2017-06-15T04:21:55.447Z,1015.39
2017-06-15T04:22:36.334Z,1015.38
2017-06-15T04:23:17.233Z,1015.43
2017-06-15T04:23:58.143Z,1015.38
2017-06-15T04:24:39.035Z,1015.4
2017-06-15T04:25:19.904Z,1015.39
2017-06-15T04:26:00.802Z,1015.4
2017-06-15T04:26:41.693Z,1015.42
2017-06-15T04:27:22.581Z,1015.43
2017-06-15T04:28:03.471Z,1015.38
2017-06-15T04:28:44.371Z,1015.41
2017-06-15T04:29:25.258Z,1015.44
2017-06-15T04:30:06.153Z,1015.4
2017-06-15T04:30:47.046Z,1015.43
2017-06-15T04:31:27.932Z,1015.39
2017-06-15T04:32:08.816Z,1015.41
2017-06-15T04:32:49.721Z,1015.43
2017-06-15T04:33:30.597Z,1015.42
2017-06-15T04:34:11.512Z,1015.38
2017-06-15T04:34:52.397Z,1015.42
2017-06-15T04:35:33.274Z,1015.42
2017-06-15T04:36:14.170Z,1015.42
2017-06-15T04:36:55.063Z,1015.41
2017-06-15T04:37:35.973Z,1015.42
2017-06-15T04:38:16.878Z,1015.42
2017-06-15T04:38:57.761Z,1015.45
2017-06-15T04:39:38.668Z,1015.45
2017-06-15T04:40:19.554Z,1015.44
2017-06-15T04:41:00.452Z,1015.5
2017-06-15T04:41:41.351Z,1015.44
2017-06-15T04:42:22.239Z,1015.45
2017-06-15T04:43:03.133Z,1015.5
2017-06-15T04:43:44.041Z,1015.45
2017-06-15T04:44:24.928Z,1015.43
2017-06-15T04:45:05.821Z,1015.42
2017-06-15T04:45:46.710Z,1015.46
2017-06-15T04:46:27.665Z,1015.47
2017-06-15T04:47:08.547Z,1015.44
2017-06-15T04:47:49.430Z,1015.46
2017-06-15T04:48:30.335Z,1015.45
2017-06-15T04:49:11.236Z,1015.47
2017-06-15T04:49:52.122Z,1015.44
2017-06-15T04:50:33.028Z,1015.46
2017-06-15T04:51:13.912Z,1015.47
2017-06-15T04:51:54.798Z,1015.46
2017-06-15T04:52:35.684Z,1015.46
2017-06-15T04:53:16.627Z,1015.46
2017-06-15T04:53:57.541Z,1015.46
2017-06-15T04:54:38.410Z,1015.48
2017-06-15T04:55:19.287Z,1015.49
2017-06-15T04:56:00.187Z,1015.46
2017-06-15T04:56:41.081Z,1015.48
2017-06-15T04:57:21.953Z,1015.47
2017-06-15T04:58:02.849Z,1015.49
2017-06-15T04:58:43.741Z,1015.46
2017-06-15T04:59:24.685Z,1015.47
2017-06-15T05:00:05.583Z,1015.47
2017-06-15T05:00:46.467Z,1015.47
2017-06-15T05:01:27.370Z,1015.47
2017-06-15T05:02:08.250Z,1015.5
2017-06-15T05:02:49.117Z,1015.5
2017-06-15T05:03:30.023Z,1015.45
2017-06-15T05:04:10.929Z,1015.46
2017-06-15T05:04:51.812Z,1015.49
2017-06-15T05:05:32.709Z,1015.46
2017-06-15T05:06:13.588Z,1015.41
2017-06-15T05:06:54.476Z,1015.41
2017-06-15T05:07:35.377Z,1015.42
2017-06-15T05:08:16.287Z,1015.4
2017-06-15T05:08:57.187Z,1015.43
2017-06-15T05:09:38.084Z,1015.38
2017-06-15T05:10:18.963Z,1015.38
2017-06-15T05:10:59.874Z,1015.4
2017-06-15T05:11:40.774Z,1015.35
2017-06-15T05:12:21.699Z,1015.37
2017-06-15T05:13:02.601Z,1015.37
2017-06-15T05:13:43.482Z,1015.39
2017-06-15T05:14:24.393Z,1015.43
2017-06-15T05:15:05.493Z,1015.4
2017-06-15T05:15:46.283Z,1015.43
2017-06-15T05:16:27.176Z,1015.41
2017-06-15T05:17:08.101Z,1015.39
2017-06-15T05:17:49.004Z,1015.36
2017-06-15T05:18:29.900Z,1015.39
2017-06-15T05:19:10.808Z,1015.35
2017-06-15T05:19:51.693Z,1015.35
2017-06-15T05:20:32.590Z,1015.31
2017-06-15T05:21:13.487Z,1015.3
2017-06-15T05:21:54.376Z,1015.31
2017-06-15T05:22:35.274Z,1015.32
2017-06-15T05:23:16.165Z,1015.35
2017-06-15T05:23:57.044Z,1015.31
2017-06-15T05:24:37.958Z,1015.32
2017-06-15T05:25:18.849Z,1015.33
2017-06-15T05:25:59.742Z,1015.31
2017-06-15T05:26:40.638Z,1015.28
2017-06-15T05:27:21.522Z,1015.3
2017-06-15T05:28:02.391Z,1015.29
2017-06-15T05:28:43.285Z,1015.31
2017-06-15T05:29:24.181Z,1015.29
2017-06-15T05:30:05.076Z,1015.3
2017-06-15T05:30:45.974Z,1015.29
2017-06-15T05:31:26.865Z,1015.3
2017-06-15T05:32:07.755Z,1015.27
2017-06-15T05:32:48.647Z,1015.27
2017-06-15T05:33:29.549Z,1015.26
2017-06-15T05:34:10.440Z,1015.29
2017-06-15T05:34:51.353Z,1015.3
2017-06-15T05:35:32.247Z,1015.29
2017-06-15T05:36:13.146Z,1015.26
2017-06-15T05:36:54.070Z,1015.26
2017-06-15T05:37:35.045Z,1015.25
2017-06-15T05:38:15.955Z,1015.27
2017-06-15T05:38:56.878Z,1015.3
2017-06-15T05:39:37.770Z,1015.34
2017-06-15T05:40:18.662Z,1015.32
2017-06-15T05:40:59.568Z,1015.3
2017-06-15T05:41:40.459Z,1015.32
2017-06-15T05:42:21.352Z,1015.35
2017-06-15T05:43:02.245Z,1015.36
2017-06-15T05:43:43.134Z,1015.36
2017-06-15T05:44:24.027Z,1015.34
2017-06-15T05:45:04.924Z,1015.34
2017-06-15T05:45:45.818Z,1015.34
2017-06-15T05:46:26.727Z,1015.3
2017-06-15T05:47:07.627Z,1015.32
2017-06-15T05:47:48.520Z,1015.32
2017-06-15T05:48:29.420Z,1015.34
2017-06-15T05:49:10.387Z,1015.32
2017-06-15T05:49:51.275Z,1015.37
2017-06-15T05:50:32.165Z,1015.38
2017-06-15T05:51:13.068Z,1015.39
2017-06-15T05:51:53.963Z,1015.4
2017-06-15T05:52:34.857Z,1015.4
2017-06-15T05:53:15.750Z,1015.37
2017-06-15T05:53:56.636Z,1015.37
2017-06-15T05:54:37.531Z,1015.36
2017-06-15T05:55:18.445Z,1015.39
2017-06-15T05:55:59.336Z,1015.37
2017-06-15T05:56:40.236Z,1015.34
2017-06-15T05:57:21.155Z,1015.34
2017-06-15T05:58:02.043Z,1015.35
2017-06-15T05:58:42.939Z,1015.35
2017-06-15T05:59:23.841Z,1015.36
2017-06-15T06:00:04.856Z,1015.33
2017-06-15T06:00:45.741Z,1015.33
2017-06-15T06:01:26.667Z,1015.3
2017-06-15T06:02:07.555Z,1015.28
2017-06-15T06:02:48.463Z,1015.34
2017-06-15T06:03:29.341Z,1015.32
2017-06-15T06:04:10.239Z,1015.3
2017-06-15T06:04:51.145Z,1015.36
2017-06-15T06:05:32.029Z,1015.34
2017-06-15T06:06:12.927Z,1015.33
2017-06-15T06:06:53.834Z,1015.34
2017-06-15T06:07:34.720Z,1015.36
2017-06-15T06:08:15.641Z,1015.38
2017-06-15T06:08:56.527Z,1015.34
2017-06-15T06:09:37.419Z,1015.34
2017-06-15T06:10:18.334Z,1015.38
2017-06-15T06:10:59.211Z,1015.35
2017-06-15T06:11:40.147Z,1015.35
2017-06-15T06:12:21.019Z,1015.34
2017-06-15T06:13:01.929Z,1015.36
2017-06-15T06:13:42.835Z,1015.35
2017-06-15T06:14:23.729Z,1015.35
2017-06-15T06:15:04.677Z,1015.31
2017-06-15T06:15:45.579Z,1015.29
2017-06-15T06:16:26.475Z,1015.28
2017-06-15T06:17:07.356Z,1015.29
2017-06-15T06:17:48.300Z,1015.28
2017-06-15T06:18:29.169Z,1015.27
2017-06-15T06:19:10.064Z,1015.25
2017-06-15T06:19:50.956Z,1015.27
2017-06-15T06:20:31.866Z,1015.28
2017-06-15T06:21:12.768Z,1015.25
2017-06-15T06:21:53.665Z,1015.25
2017-06-15T06:22:34.577Z,1015.21
2017-06-15T06:23:15.467Z,1015.24
2017-06-15T06:23:56.377Z,1015.17
2017-06-15T06:24:37.349Z,1015.18
2017-06-15T06:25:18.248Z,1015.16
2017-06-15T06:25:59.152Z,1015.21
2017-06-15T06:27:57.939Z,1015.19
2017-06-15T06:28:38.844Z,1015.2
2017-06-15T06:29:19.745Z,1015.2
2017-06-15T06:30:00.675Z,1015.22
2017-06-15T06:30:41.547Z,1015.25
2017-06-15T06:31:22.446Z,1015.21
2017-06-15T06:32:03.349Z,1015.18
2017-06-15T06:32:44.291Z,1015.22
2017-06-15T06:33:25.192Z,1015.19
2017-06-15T06:34:06.098Z,1015.24
2017-06-15T06:34:46.997Z,1015.17
2017-06-15T06:35:27.920Z,1015.17
2017-06-15T06:36:08.799Z,1015.2
2017-06-15T06:36:49.710Z,1015.2
2017-06-15T06:37:30.608Z,1015.16
2017-06-15T06:38:11.513Z,1015.15
2017-06-15T06:38:52.427Z,1015.13
2017-06-15T06:39:33.320Z,1015.15
2017-06-15T06:40:14.227Z,1015.16
2017-06-15T06:40:55.141Z,1015.18
2017-06-15T06:41:36.051Z,1015.14
2017-06-15T06:42:16.956Z,1015.19
2017-06-15T06:42:57.863Z,1015.18
2017-06-15T06:43:38.770Z,1015.16
2017-06-15T06:44:19.690Z,1015.19
2017-06-15T06:45:00.577Z,1015.16
2017-06-15T06:45:41.501Z,1015.14
2017-06-15T06:47:19.916Z,1015.15
2017-06-15T06:48:00.814Z,1015.15
2017-06-15T06:48:41.726Z,1015.14
2017-06-15T06:49:22.682Z,1015.2
2017-06-15T06:50:03.567Z,1015.21
2017-06-15T06:50:44.483Z,1015.19
2017-06-15T06:51:25.365Z,1015.17
2017-06-15T06:52:06.278Z,1015.16
2017-06-15T06:52:47.172Z,1015.17
2017-06-15T06:53:28.060Z,1015.14
2017-06-15T06:54:09.014Z,1015.15
2017-06-15T06:54:49.860Z,1015.16
2017-06-15T06:55:30.765Z,1015.13
2017-06-15T06:56:11.675Z,1015.13
2017-06-15T06:56:52.584Z,1015.15
2017-06-15T06:57:33.519Z,1015.16
2017-06-15T06:59:11.969Z,1015.19
2017-06-15T06:59:52.872Z,1015.15
2017-06-15T07:00:33.771Z,1015.21
2017-06-15T07:01:14.681Z,1015.21
2017-06-15T07:01:55.593Z,1015.16
2017-06-15T07:02:36.505Z,1015.18
2017-06-15T07:03:17.377Z,1015.15
2017-06-15T07:03:58.297Z,1015.19
2017-06-15T07:04:39.186Z,1015.19
2017-06-15T07:05:20.090Z,1015.19
2017-06-15T07:06:00.989Z,1015.21
2017-06-15T07:06:41.898Z,1015.2
2017-06-15T07:07:22.811Z,1015.2
2017-06-15T07:08:03.720Z,1015.17
2017-06-15T07:08:44.624Z,1015.22
2017-06-15T07:09:25.535Z,1015.19
2017-06-15T07:10:06.423Z,1015.21
2017-06-15T07:10:47.390Z,1015.18
2017-06-15T07:11:28.279Z,1015.19
2017-06-15T07:13:27.101Z,1015.19
2017-06-15T07:14:08.007Z,1015.2
2017-06-15T07:14:48.920Z,1015.14
2017-06-15T07:15:29.867Z,1015.15
2017-06-15T07:16:10.778Z,1015.15
2017-06-15T07:16:51.677Z,1015.13
2017-06-15T07:17:32.587Z,1015.14
2017-06-15T07:18:13.485Z,1015.11
2017-06-15T07:18:54.401Z,1015.08
2017-06-15T07:19:35.296Z,1015.12
2017-06-15T07:20:16.210Z,1015.1
2017-06-15T07:20:57.111Z,1015.1
2017-06-15T07:21:38.032Z,1015.1
2017-06-15T07:22:18.959Z,1015.11
2017-06-15T07:22:59.807Z,1015.08
2017-06-15T07:23:40.712Z,1015.06
2017-06-15T07:24:21.611Z,1015.07
2017-06-15T07:25:02.528Z,1015.06
2017-06-15T07:25:43.439Z,1015.08
2017-06-15T07:26:24.362Z,1015.05
2017-06-15T07:27:05.246Z,1015.1
2017-06-15T07:27:46.164Z,1015.1
2017-06-15T07:28:27.067Z,1015.09
2017-06-15T07:29:07.986Z,1015.06
2017-06-15T07:29:48.881Z,1015.1
2017-06-15T07:30:29.811Z,1015.09
2017-06-15T07:31:10.704Z,1015.04
2017-06-15T07:31:51.643Z,1015.06
2017-06-15T07:32:32.555Z,1015.03
2017-06-15T07:33:13.459Z,1015.05
2017-06-15T07:33:54.360Z,1015.06
2017-06-15T07:34:35.269Z,1015.06
2017-06-15T07:35:16.169Z,1015.11
2017-06-15T07:35:57.084Z,1015.08
2017-06-15T07:36:37.996Z,1015.14
2017-06-15T07:37:18.905Z,1015.14
2017-06-15T07:37:59.788Z,1015.14
2017-06-15T07:40:08.857Z,1015.13
2017-06-15T07:40:49.760Z,1015.12
2017-06-15T07:41:30.661Z,1015.13
2017-06-15T07:42:11.570Z,1015.1
2017-06-15T07:42:52.480Z,1015.13
2017-06-15T07:43:33.400Z,1015.14
2017-06-15T07:44:14.326Z,1015.11
2017-06-15T07:44:55.209Z,1015.1
2017-06-15T07:45:36.119Z,1015.11
2017-06-15T07:46:17.026Z,1015.11
2017-06-15T07:46:57.934Z,1015.14
2017-06-15T07:47:38.872Z,1015.1
2017-06-15T07:48:19.785Z,1015.11
2017-06-15T07:49:00.680Z,1015.1
2017-06-15T07:49:41.618Z,1015.12
2017-06-15T07:50:22.520Z,1015.11
2017-06-15T07:51:03.428Z,1015.15
2017-06-15T07:51:44.325Z,1015.15
2017-06-15T07:52:25.247Z,1015.11
2017-06-15T07:53:06.136Z,1015.09
2017-06-15T07:53:47.057Z,1015.13
2017-06-15T07:54:27.963Z,1015.12
2017-06-15T07:55:08.828Z,1015.1
2017-06-15T07:55:49.761Z,1015.03
2017-06-15T07:56:30.664Z,1015.08
2017-06-15T07:57:11.608Z,1015.07
2017-06-15T07:57:52.523Z,1015.09
2017-06-15T07:58:33.421Z,1015.1
2017-06-15T07:59:14.340Z,1015.07
2017-06-15T07:59:55.237Z,1015.05
2017-06-15T08:00:36.179Z,1015.06
2017-06-15T08:01:17.096Z,1015.13
2017-06-15T08:01:58.005Z,1015.12
2017-06-15T08:02:38.920Z,1015.14
2017-06-15T08:03:19.834Z,1015.14
2017-06-15T08:04:00.755Z,1015.11
2017-06-15T08:04:41.662Z,1015.17
2017-06-15T08:05:22.579Z,1015.19
2017-06-15T08:06:03.481Z,1015.13
2017-06-15T08:06:44.389Z,1015.13
2017-06-15T08:07:25.294Z,1015.13
2017-06-15T08:08:06.212Z,1015.15
2017-06-15T08:08:47.121Z,1015.14
2017-06-15T08:09:28.033Z,1015.1
2017-06-15T08:10:08.940Z,1015.12
2017-06-15T08:10:49.847Z,1015.11
2017-06-15T08:11:30.737Z,1015.1
2017-06-15T08:12:11.642Z,1015.14
2017-06-15T08:12:52.543Z,1015.15
2017-06-15T08:13:33.460Z,1015.09
2017-06-15T08:14:14.361Z,1015.14
2017-06-15T08:14:55.307Z,1015.13
2017-06-15T08:15:36.213Z,1015.11
2017-06-15T08:16:17.126Z,1015.05
2017-06-15T08:16:58.029Z,1015.11
2017-06-15T08:17:38.941Z,1015.07
2017-06-15T08:18:19.843Z,1015.04
2017-06-15T08:19:00.761Z,1015.01
2017-06-15T08:19:41.668Z,1015
2017-06-15T08:20:22.579Z,1015.03
2017-06-15T08:21:03.496Z,1015.03
2017-06-15T08:21:44.409Z,1015.05
2017-06-15T08:22:25.327Z,1015.03
2017-06-15T08:23:06.239Z,1015.06
2017-06-15T08:23:47.160Z,1015.09